createdAt,value
2022-11-18T00:00:32.491Z,997.81
2022-11-18T00:10:32.820Z,997.84
2022-11-18T00:20:32.877Z,997.68
2022-11-18T00:30:33.207Z,997.39
2022-11-18T00:40:33.236Z,997.47
2022-11-18T00:50:33.570Z,997.35
2022-11-18T01:00:33.673Z,997.36
2022-11-18T01:10:33.831Z,997.43
2022-11-18T01:20:33.866Z,997.45
2022-11-18T01:30:34.207Z,997.78
2022-11-18T01:40:34.268Z,997.67
2022-11-18T01:50:34.598Z,997.99
2022-11-18T02:00:34.619Z,998.24
2022-11-18T02:10:34.957Z,998.61
2022-11-18T02:20:34.999Z,999.18
2022-11-18T02:30:35.340Z,999.41
2022-11-18T02:40:35.366Z,998.92
2022-11-18T02:50:35.685Z,998.99
2022-11-18T03:00:35.709Z,999.15
2022-11-18T03:10:36.062Z,999.01
2022-11-18T03:20:36.089Z,998.80
2022-11-18T03:30:57.475Z,998.86
2022-11-18T03:40:36.511Z,999.02
2022-11-18T03:50:36.726Z,999.17
2022-11-18T04:00:36.944Z,999.18
2022-11-18T04:10:39.202Z,999.39
2022-11-18T04:20:37.428Z,999.46
2022-11-18T04:30:37.731Z,999.57
2022-11-18T04:40:37.766Z,999.59
2022-11-18T04:50:37.996Z,999.76
2022-11-18T05:00:38.227Z,999.93
2022-11-18T05:10:38.472Z,999.92
2022-11-18T05:20:41.583Z,999.96
2022-11-18T05:30:38.948Z,1000.00
2022-11-18T05:40:38.972Z,1000.22
2022-11-18T05:50:39.206Z,1000.27
2022-11-18T06:00:39.544Z,1000.17
2022-11-18T06:10:40.603Z,1000.39
2022-11-18T06:20:39.852Z,1000.98
2022-11-18T06:30:40.151Z,1000.95
2022-11-18T06:40:40.201Z,1000.65
2022-11-18T06:50:41.453Z,1000.81
2022-11-18T07:00:40.627Z,1000.89
2022-11-18T07:10:43.969Z,1000.97
2022-11-18T07:20:40.791Z,1000.98
2022-11-18T07:30:41.062Z,1001.95
2022-11-18T07:40:41.289Z,1002.05
2022-11-18T07:50:46.850Z,1001.92
2022-11-18T08:00:42.703Z,1002.02
2022-11-18T08:10:42.003Z,1002.01
2022-11-18T08:20:42.039Z,1002.06
2022-11-18T08:30:44.251Z,1002.10
2022-11-18T08:40:42.485Z,1002.27
2022-11-18T08:50:42.746Z,1002.33
2022-11-18T09:00:42.973Z,1002.22
2022-11-18T09:10:43.323Z,1002.37
2022-11-18T09:20:43.352Z,1002.50
2022-11-18T09:30:44.690Z,1002.57
2022-11-18T09:40:43.713Z,1002.64
2022-11-18T09:50:51.350Z,1002.69
2022-11-18T10:00:45.027Z,1002.87
2022-11-18T10:10:44.272Z,1002.92
2022-11-18T10:20:44.487Z,1002.98
2022-11-18T10:30:44.732Z,1002.90
2022-11-18T10:40:44.961Z,1003.00
2022-11-18T10:50:47.279Z,1002.98
2022-11-18T11:00:46.339Z,1003.06
2022-11-18T11:10:51.337Z,1003.07
2022-11-18T11:20:46.739Z,1003.05
2022-11-18T11:30:46.669Z,1003.03
2022-11-18T11:40:46.193Z,1003.06
2022-11-18T11:50:54.741Z,1003.03
2022-11-18T12:00:47.574Z,1003.12
2022-11-18T12:10:46.863Z,1002.93
2022-11-18T12:20:46.883Z,1003.07
2022-11-18T12:30:47.128Z,1003.20
2022-11-18T12:40:52.271Z,1003.19
2022-11-18T12:50:48.439Z,1003.24
2022-11-18T13:00:49.873Z,1003.33
2022-11-18T13:10:51.733Z,1003.43
2022-11-18T13:20:51.614Z,1003.69
2022-11-18T13:30:49.472Z,1003.66
2022-11-18T13:40:48.693Z,1003.54
2022-11-18T13:50:49.142Z,1003.56
2022-11-18T14:00:49.190Z,1003.59
2022-11-18T14:10:52.576Z,1003.68
2022-11-18T14:20:49.424Z,1003.79
2022-11-18T14:30:49.770Z,1003.91
2022-11-18T14:40:49.791Z,1003.85
2022-11-18T14:50:51.060Z,1003.75
2022-11-18T15:00:50.321Z,1003.85
2022-11-18T15:10:50.721Z,1004.17
2022-11-18T15:20:50.757Z,1004.27
2022-11-18T15:30:51.178Z,1004.54
2022-11-18T15:40:51.204Z,1004.62
2022-11-18T15:50:54.252Z,1004.58
2022-11-18T16:00:51.693Z,1004.66
2022-11-18T16:10:51.828Z,1004.49
2022-11-18T16:20:51.856Z,1004.48
2022-11-18T16:30:52.105Z,1004.60
2022-11-18T16:40:52.320Z,1004.59
2022-11-18T16:50:52.675Z,1004.62
2022-11-18T17:01:17.669Z,1004.81
2022-11-18T17:10:54.070Z,1004.96
2022-11-18T17:20:53.102Z,1005.03
2022-11-18T17:30:53.157Z,1005.11
2022-11-18T17:40:57.937Z,1005.10
2022-11-18T17:50:53.653Z,1005.21
2022-11-18T18:00:53.801Z,1005.49
2022-11-18T18:10:53.988Z,1005.51
2022-11-18T18:20:54.023Z,1005.54
2022-11-18T18:30:54.197Z,1005.57
2022-11-18T18:40:54.398Z,1005.64
2022-11-18T18:50:54.523Z,1005.66
2022-11-18T19:00:58.293Z,1005.77
2022-11-18T19:10:55.040Z,1005.80
2022-11-18T19:20:58.642Z,1005.81
2022-11-18T19:30:55.479Z,1005.86
2022-11-18T19:40:55.745Z,1005.88
2022-11-18T19:50:59.674Z,1005.89
2022-11-18T20:00:55.986Z,1005.92
2022-11-18T20:10:56.180Z,1005.96
2022-11-18T20:20:56.127Z,1005.98
2022-11-18T20:30:56.333Z,1005.84
2022-11-18T20:40:56.534Z,1005.91
2022-11-18T20:50:56.803Z,1005.95
2022-11-18T21:01:01.463Z,1005.86
2022-11-18T21:10:57.927Z,1005.93
2022-11-18T21:20:57.261Z,1006.09
2022-11-18T21:30:57.294Z,1006.17
2022-11-18T21:40:57.635Z,1006.33
2022-11-18T21:50:57.671Z,1006.37
2022-11-18T22:00:59.068Z,1006.35
2022-11-18T22:10:58.096Z,1006.51
2022-11-18T22:20:58.380Z,1006.46
2022-11-18T22:30:58.505Z,1006.48
2022-11-18T22:40:58.602Z,1006.53
2022-11-18T22:50:58.624Z,1006.37
2022-11-18T23:00:59.000Z,1006.46
2022-11-18T23:10:59.037Z,1006.51
2022-11-18T23:20:59.277Z,1006.60
2022-11-18T23:30:59.512Z,1006.52
2022-11-18T23:40:59.952Z,1006.44
2022-11-18T23:50:59.968Z,1006.43
